createdAt,value
2023-02-11T00:01:11.515Z,69.50
2023-02-11T00:03:38.862Z,71.80
2023-02-11T00:06:09.259Z,70.10
2023-02-11T00:08:36.860Z,70.80
2023-02-11T00:11:04.104Z,70.50
2023-02-11T00:13:30.994Z,70.40
2023-02-11T00:15:57.709Z,70.20
2023-02-11T00:18:24.543Z,70.00
2023-02-11T00:20:51.272Z,69.70
2023-02-11T00:23:18.012Z,69.90
2023-02-11T00:25:45.556Z,70.10
2023-02-11T00:28:12.637Z,70.90
2023-02-11T00:30:41.026Z,70.50
2023-02-11T00:33:08.334Z,70.40
2023-02-11T00:35:37.882Z,70.10
2023-02-11T00:38:04.657Z,71.50
2023-02-11T00:40:31.444Z,70.20
2023-02-11T00:42:58.185Z,70.20
2023-02-11T00:45:25.060Z,70.10
2023-02-11T00:47:51.856Z,70.10
2023-02-11T00:50:18.654Z,70.20
2023-02-11T00:52:45.783Z,70.10
2023-02-11T00:55:12.554Z,70.00
2023-02-11T00:57:39.314Z,70.50
2023-02-11T01:00:07.789Z,70.20
2023-02-11T01:02:34.543Z,71.50
2023-02-11T01:05:01.509Z,70.20
2023-02-11T01:07:29.010Z,70.20
2023-02-11T01:09:57.003Z,71.00
2023-02-11T01:12:24.134Z,70.20
2023-02-11T01:14:50.863Z,70.70
2023-02-11T01:17:19.450Z,70.10
2023-02-11T01:19:46.201Z,70.20
2023-02-11T01:22:12.981Z,70.40
2023-02-11T01:24:39.806Z,70.50
2023-02-11T01:27:07.667Z,70.60
2023-02-11T01:29:34.491Z,70.70
2023-02-11T01:32:01.620Z,70.80
2023-02-11T01:34:28.845Z,71.10
2023-02-11T01:36:59.425Z,71.40
2023-02-11T01:39:28.964Z,72.90
2023-02-11T01:41:55.716Z,70.90
2023-02-11T01:44:29.551Z,70.90
2023-02-11T01:46:56.675Z,70.50
2023-02-11T01:49:28.481Z,71.00
2023-02-11T01:52:10.704Z,72.60
2023-02-11T01:55:02.880Z,73.60
2023-02-11T01:57:32.704Z,71.90
2023-02-11T02:00:24.117Z,72.20
2023-02-11T02:03:16.950Z,73.30
2023-02-11T02:05:59.778Z,72.90
2023-02-11T02:08:36.096Z,72.60
2023-02-11T02:11:03.640Z,72.90
2023-02-11T02:13:33.348Z,71.60
2023-02-11T02:16:03.279Z,72.00
2023-02-11T02:19:06.374Z,72.00
2023-02-11T02:22:16.008Z,73.00
2023-02-11T02:24:58.757Z,72.70
2023-02-11T02:28:01.137Z,72.60
2023-02-11T02:31:05.504Z,72.70
2023-02-11T02:34:02.579Z,72.80
2023-02-11T02:36:46.269Z,72.80
2023-02-11T02:39:21.505Z,73.10
2023-02-11T02:41:50.356Z,72.90
2023-02-11T02:44:18.741Z,73.00
2023-02-11T02:46:45.962Z,72.30
2023-02-11T02:49:14.413Z,71.50
2023-02-11T02:52:18.114Z,72.30
2023-02-11T02:55:23.962Z,73.30
2023-02-11T02:58:09.605Z,73.90
2023-02-11T03:01:08.458Z,70.80
2023-02-11T03:03:35.243Z,73.20
2023-02-11T03:06:11.279Z,71.10
2023-02-11T03:08:50.380Z,72.60
2023-02-11T03:11:19.481Z,73.60
2023-02-11T03:13:48.615Z,72.80
2023-02-11T03:16:22.919Z,72.50
2023-02-11T03:18:56.312Z,73.60
2023-02-11T03:21:24.585Z,73.30
2023-02-11T03:23:56.365Z,72.50
2023-02-11T03:26:30.102Z,73.30
2023-02-11T03:29:21.506Z,73.50
2023-02-11T03:32:06.800Z,73.30
2023-02-11T03:34:49.500Z,74.40
2023-02-11T03:37:19.624Z,73.60
2023-02-11T03:39:53.622Z,72.00
2023-02-11T03:42:21.853Z,73.70
2023-02-11T03:44:58.317Z,72.30
2023-02-11T03:47:27.522Z,74.10
2023-02-11T03:49:57.449Z,73.50
2023-02-11T03:52:25.911Z,73.70
2023-02-11T03:54:57.690Z,73.40
2023-02-11T03:57:24.486Z,74.20
2023-02-11T03:59:56.757Z,72.70
2023-02-11T04:02:31.293Z,74.80
2023-02-11T04:04:58.107Z,74.40
2023-02-11T04:07:24.950Z,72.80
2023-02-11T04:09:52.235Z,72.80
2023-02-11T04:12:19.263Z,73.60
2023-02-11T04:14:46.164Z,73.20
2023-02-11T04:17:12.989Z,72.80
2023-02-11T04:19:39.758Z,72.90
2023-02-11T04:22:07.275Z,72.70
2023-02-11T04:24:34.530Z,73.30
2023-02-11T04:27:01.727Z,73.10
2023-02-11T04:29:28.497Z,72.70
2023-02-11T04:31:55.880Z,72.70
2023-02-11T04:34:22.649Z,73.00
2023-02-11T04:36:49.421Z,72.50
2023-02-11T04:39:16.231Z,72.50
2023-02-11T04:41:43.074Z,72.40
2023-02-11T04:44:09.914Z,72.40
2023-02-11T04:46:36.756Z,72.40
2023-02-11T04:49:03.834Z,72.30
2023-02-11T04:51:30.736Z,72.30
2023-02-11T04:53:57.478Z,72.80
2023-02-11T04:56:24.326Z,72.30
2023-02-11T04:58:51.073Z,72.40
2023-02-11T05:01:17.997Z,72.30
2023-02-11T05:03:44.883Z,72.30
2023-02-11T05:06:12.168Z,72.50
2023-02-11T05:08:39.368Z,72.70
2023-02-11T05:11:07.542Z,72.50
2023-02-11T05:13:34.365Z,72.70
2023-02-11T05:16:01.126Z,72.30
2023-02-11T05:18:27.993Z,72.40
2023-02-11T05:20:54.693Z,72.60
2023-02-11T05:23:21.449Z,72.50
2023-02-11T05:25:48.216Z,72.50
2023-02-11T05:28:15.324Z,72.70
2023-02-11T05:30:42.294Z,72.90
2023-02-11T05:33:09.183Z,72.90
2023-02-11T05:35:35.966Z,73.30
2023-02-11T05:38:02.724Z,72.80
2023-02-11T05:40:29.528Z,72.90
2023-02-11T05:42:56.241Z,73.00
2023-02-11T05:45:22.982Z,72.70
2023-02-11T05:47:49.670Z,72.90
2023-02-11T05:50:16.522Z,73.00
2023-02-11T05:52:43.267Z,73.10
2023-02-11T05:55:10.491Z,73.10
2023-02-11T05:57:37.243Z,73.40
2023-02-11T06:00:04.964Z,73.10
2023-02-11T06:02:39.612Z,73.70
2023-02-11T06:05:06.987Z,72.80
2023-02-11T06:07:33.718Z,73.60
2023-02-11T06:10:00.497Z,73.10
2023-02-11T06:12:27.604Z,73.30
2023-02-11T06:14:54.355Z,73.30
2023-02-11T06:17:21.140Z,73.20
2023-02-11T06:19:47.952Z,73.30
2023-02-11T06:22:14.959Z,73.20
2023-02-11T06:25:00.481Z,73.60
2023-02-11T06:27:27.969Z,73.40
2023-02-11T06:29:54.739Z,73.90
2023-02-11T06:32:42.183Z,74.10
2023-02-11T06:35:10.753Z,74.10
2023-02-11T06:37:38.771Z,74.40
2023-02-11T06:40:05.944Z,74.60
2023-02-11T06:42:32.740Z,74.50
2023-02-11T06:44:59.554Z,74.20
2023-02-11T06:47:26.278Z,74.10
2023-02-11T06:49:52.973Z,74.40
2023-02-11T06:52:19.667Z,74.40
2023-02-11T06:54:46.349Z,74.10
2023-02-11T06:57:13.272Z,74.10
2023-02-11T06:59:40.065Z,74.40
2023-02-11T07:02:08.974Z,73.90
2023-02-11T07:04:35.755Z,74.50
2023-02-11T07:07:02.537Z,74.00
2023-02-11T07:09:29.349Z,74.00
2023-02-11T07:11:56.094Z,74.00
2023-02-11T07:14:22.846Z,74.40
2023-02-11T07:16:49.571Z,74.10
2023-02-11T07:19:16.346Z,73.90
2023-02-11T07:21:43.090Z,73.80
2023-02-11T07:24:11.209Z,73.80
2023-02-11T07:26:38.497Z,74.20
2023-02-11T07:29:05.275Z,74.40
2023-02-11T07:31:32.561Z,74.10
2023-02-11T07:34:01.479Z,74.60
2023-02-11T07:36:30.422Z,75.80
2023-02-11T07:38:57.336Z,75.40
2023-02-11T07:41:25.838Z,74.10
2023-02-11T07:43:52.966Z,74.70
2023-02-11T07:46:23.892Z,74.30
2023-02-11T07:48:51.407Z,75.50
2023-02-11T07:51:21.705Z,74.50
2023-02-11T07:53:49.022Z,75.30
2023-02-11T07:56:17.050Z,74.60
2023-02-11T07:58:43.880Z,74.70
2023-02-11T08:01:15.142Z,74.10
2023-02-11T08:03:42.881Z,75.40
2023-02-11T08:06:15.259Z,74.20
2023-02-11T08:08:42.777Z,75.40
2023-02-11T08:11:11.834Z,74.10
2023-02-11T08:13:38.725Z,74.10
2023-02-11T08:16:06.332Z,73.90
2023-02-11T08:18:34.210Z,73.80
2023-02-11T08:21:08.997Z,73.60
2023-02-11T08:23:40.374Z,74.60
2023-02-11T08:26:10.257Z,74.50
2023-02-11T08:28:38.671Z,73.70
2023-02-11T08:31:10.410Z,72.80
2023-02-11T08:33:37.807Z,74.00
2023-02-11T08:36:12.883Z,72.70
2023-02-11T08:38:39.650Z,73.40
2023-02-11T08:41:07.812Z,72.20
2023-02-11T08:43:35.701Z,73.00
2023-02-11T08:46:02.939Z,72.80
2023-02-11T08:48:30.178Z,72.60
2023-02-11T08:50:57.252Z,73.00
2023-02-11T08:53:24.040Z,72.90
2023-02-11T08:55:55.039Z,72.50
2023-02-11T08:58:22.613Z,73.00
2023-02-11T09:00:50.247Z,73.10
2023-02-11T09:03:17.619Z,72.50
2023-02-11T09:05:46.067Z,72.40
2023-02-11T09:08:13.678Z,73.00
2023-02-11T09:10:40.514Z,72.50
2023-02-11T09:13:07.819Z,72.30
2023-02-11T09:15:34.910Z,73.60
2023-02-11T09:18:02.615Z,72.40
2023-02-11T09:20:29.617Z,72.90
2023-02-11T09:22:58.613Z,72.10
2023-02-11T09:25:25.690Z,72.90
2023-02-11T09:27:53.712Z,72.00
2023-02-11T09:30:20.614Z,71.70
2023-02-11T09:32:47.679Z,72.20
2023-02-11T09:35:14.427Z,71.60
2023-02-11T09:37:41.224Z,71.60
2023-02-11T09:40:08.449Z,71.40
2023-02-11T09:42:53.319Z,71.40
2023-02-11T09:45:24.136Z,73.00
2023-02-11T09:47:56.876Z,72.90
2023-02-11T09:50:34.264Z,70.80
2023-02-11T09:53:11.639Z,72.70
2023-02-11T09:55:47.834Z,73.40
2023-02-11T09:58:31.838Z,73.50
2023-02-11T10:01:21.699Z,72.80
2023-02-11T10:04:07.252Z,73.20
2023-02-11T10:06:39.787Z,73.10
2023-02-11T10:09:12.284Z,72.90
2023-02-11T10:11:56.248Z,70.20
2023-02-11T10:14:43.711Z,70.10
2023-02-11T10:17:32.637Z,72.40
2023-02-11T10:20:18.241Z,72.60
2023-02-11T10:22:53.127Z,70.30
2023-02-11T10:25:37.465Z,72.40
2023-02-11T10:28:20.652Z,69.90
2023-02-11T10:31:01.014Z,71.70
2023-02-11T10:33:30.372Z,71.30
2023-02-11T10:35:57.109Z,70.90
2023-02-11T10:38:23.916Z,69.00
2023-02-11T10:40:50.982Z,68.80
2023-02-11T10:43:21.148Z,68.80
2023-02-11T10:45:52.915Z,70.90
2023-02-11T10:48:46.614Z,69.50
2023-02-11T10:51:14.631Z,70.80
2023-02-11T10:53:41.794Z,68.60
2023-02-11T10:56:22.954Z,68.90
2023-02-11T10:59:14.724Z,70.20
2023-02-11T11:01:50.053Z,70.30
2023-02-11T11:04:35.776Z,69.80
2023-02-11T11:07:14.550Z,71.10
2023-02-11T11:10:06.482Z,70.80
2023-02-11T11:12:46.414Z,69.80
2023-02-11T11:15:26.572Z,69.80
2023-02-11T11:18:22.416Z,69.30
2023-02-11T11:21:01.324Z,69.30
2023-02-11T11:23:30.436Z,68.90
2023-02-11T11:26:07.606Z,67.80
2023-02-11T11:28:43.349Z,67.90
2023-02-11T11:31:23.240Z,68.00
2023-02-11T11:33:53.171Z,67.50
2023-02-11T11:36:32.315Z,66.90
2023-02-11T11:39:03.280Z,67.50
2023-02-11T11:41:34.459Z,66.60
2023-02-11T11:44:16.012Z,66.90
2023-02-11T11:46:44.822Z,67.10
2023-02-11T11:49:35.642Z,65.80
2023-02-11T11:52:19.633Z,67.50
2023-02-11T11:54:51.922Z,67.30
2023-02-11T11:57:25.555Z,66.30
2023-02-11T11:59:52.558Z,67.10
2023-02-11T12:02:19.360Z,65.90
2023-02-11T12:05:11.894Z,65.40
2023-02-11T12:07:47.455Z,67.20
2023-02-11T12:10:34.252Z,65.00
2023-02-11T12:13:09.765Z,68.10
2023-02-11T12:16:03.699Z,67.30
2023-02-11T12:19:15.607Z,66.90
2023-02-11T12:22:03.848Z,66.90
2023-02-11T12:24:42.299Z,67.20
2023-02-11T12:27:30.476Z,66.90
2023-02-11T12:30:20.829Z,65.70
2023-02-11T12:32:59.370Z,66.40
2023-02-11T12:35:54.122Z,65.60
2023-02-11T12:38:32.310Z,64.70
2023-02-11T12:41:56.879Z,65.20
2023-02-11T12:44:47.922Z,65.30
2023-02-11T12:47:41.187Z,63.90
2023-02-11T12:50:45.648Z,63.70
2023-02-11T12:53:50.335Z,63.80
2023-02-11T12:56:32.729Z,63.50
2023-02-11T12:59:01.912Z,62.90
2023-02-11T13:01:39.634Z,62.70
2023-02-11T13:04:33.208Z,63.60
2023-02-11T13:07:06.353Z,62.70
2023-02-11T13:09:39.003Z,63.40
2023-02-11T13:12:26.204Z,63.40
2023-02-11T13:14:56.163Z,62.70
2023-02-11T13:17:36.717Z,62.80
2023-02-11T13:20:18.455Z,62.70
2023-02-11T13:22:57.124Z,62.70
2023-02-11T13:26:11.473Z,63.30
2023-02-11T13:29:20.869Z,62.80
2023-02-11T13:32:07.351Z,61.90
2023-02-11T13:34:43.276Z,62.20
2023-02-11T13:37:37.108Z,62.00
2023-02-11T13:40:19.538Z,62.20
2023-02-11T13:42:55.664Z,61.30
2023-02-11T13:45:33.967Z,62.00
2023-02-11T13:48:32.858Z,61.30
2023-02-11T13:51:04.441Z,61.60
2023-02-11T13:53:46.689Z,61.30
2023-02-11T13:56:27.292Z,62.20
2023-02-11T13:58:54.142Z,61.80
2023-02-11T14:01:39.640Z,60.60
2023-02-11T14:04:39.651Z,62.70
2023-02-11T14:07:45.778Z,62.60
2023-02-11T14:10:43.486Z,62.90
2023-02-11T14:13:31.955Z,62.60
2023-02-11T14:16:22.563Z,62.90
2023-02-11T14:18:54.960Z,63.40
2023-02-11T14:21:27.669Z,63.40
2023-02-11T14:24:07.053Z,63.20
2023-02-11T14:26:46.731Z,62.80
2023-02-11T14:29:19.828Z,63.30
2023-02-11T14:32:06.200Z,63.10
2023-02-11T14:34:47.903Z,63.50
2023-02-11T14:37:35.703Z,60.50
2023-02-11T14:40:20.383Z,62.70
2023-02-11T14:42:47.523Z,62.50
2023-02-11T14:45:24.657Z,60.90
2023-02-11T14:48:28.830Z,62.60
2023-02-11T14:51:00.850Z,61.90
2023-02-11T14:53:28.757Z,62.20
2023-02-11T14:55:55.776Z,60.90
2023-02-11T14:58:22.550Z,60.50
2023-02-11T15:01:09.174Z,60.20
2023-02-11T15:03:41.286Z,62.10
2023-02-11T15:06:19.509Z,61.20
2023-02-11T15:09:29.668Z,62.70
2023-02-11T15:11:57.702Z,62.60
2023-02-11T15:14:25.626Z,62.00
2023-02-11T15:16:54.583Z,62.10
2023-02-11T15:19:26.741Z,62.00
2023-02-11T15:21:54.662Z,63.20
2023-02-11T15:24:24.212Z,62.10
2023-02-11T15:26:56.952Z,61.40
2023-02-11T15:29:41.583Z,63.80
2023-02-11T15:32:18.927Z,64.00
2023-02-11T15:34:46.624Z,63.90
2023-02-11T15:37:20.139Z,62.70
2023-02-11T15:39:47.018Z,62.90
2023-02-11T15:42:28.009Z,62.20
2023-02-11T15:45:16.606Z,64.40
2023-02-11T15:47:50.511Z,64.70
2023-02-11T15:50:23.266Z,64.60
2023-02-11T15:52:51.259Z,64.70
2023-02-11T15:55:19.114Z,63.80
2023-02-11T15:57:52.083Z,63.60
2023-02-11T16:00:21.449Z,64.20
2023-02-11T16:02:50.696Z,64.30
2023-02-11T16:05:32.653Z,63.80
2023-02-11T16:08:01.402Z,65.80
2023-02-11T16:10:31.804Z,65.70
2023-02-11T16:13:07.412Z,65.20
2023-02-11T16:15:34.184Z,66.10
2023-02-11T16:18:03.878Z,64.00
2023-02-11T16:20:31.010Z,65.30
2023-02-11T16:22:57.975Z,65.60
2023-02-11T16:25:24.888Z,64.70
2023-02-11T16:27:53.212Z,64.70
2023-02-11T16:30:33.883Z,65.70
2023-02-11T16:33:00.807Z,67.00
2023-02-11T16:35:27.517Z,65.00
2023-02-11T16:37:55.413Z,64.70
2023-02-11T16:40:23.563Z,64.80
2023-02-11T16:42:52.367Z,64.80
2023-02-11T16:45:19.384Z,65.00
2023-02-11T16:47:46.517Z,65.10
2023-02-11T16:50:22.191Z,65.00
2023-02-11T16:52:49.194Z,67.30
2023-02-11T16:55:16.036Z,65.80
2023-02-11T16:57:42.784Z,65.50
2023-02-11T17:00:10.288Z,65.30
2023-02-11T17:02:38.111Z,65.60
2023-02-11T17:05:07.889Z,66.20
2023-02-11T17:07:35.306Z,66.60
2023-02-11T17:10:02.171Z,65.40
2023-02-11T17:12:29.026Z,65.30
2023-02-11T17:14:55.954Z,65.40
2023-02-11T17:17:23.830Z,65.60
2023-02-11T17:19:51.328Z,65.50
2023-02-11T17:22:18.656Z,65.60
2023-02-11T17:24:45.571Z,65.60
2023-02-11T17:27:12.637Z,65.40
2023-02-11T17:29:39.370Z,65.60
2023-02-11T17:32:06.364Z,65.50
2023-02-11T17:34:33.554Z,65.70
2023-02-11T17:37:01.403Z,65.70
2023-02-11T17:39:28.222Z,65.70
2023-02-11T17:41:55.091Z,66.10
2023-02-11T17:44:21.822Z,66.10
2023-02-11T17:46:48.588Z,66.20
2023-02-11T17:49:16.257Z,66.10
2023-02-11T17:51:43.038Z,66.10
2023-02-11T17:54:16.777Z,66.30
2023-02-11T17:56:43.592Z,68.80
2023-02-11T17:59:12.022Z,66.80
2023-02-11T18:01:40.055Z,69.10
2023-02-11T18:04:08.243Z,68.00
2023-02-11T18:06:35.341Z,68.10
2023-02-11T18:09:04.226Z,67.40
2023-02-11T18:11:32.838Z,67.40
2023-02-11T18:14:00.723Z,67.80
2023-02-11T18:16:29.412Z,67.90
2023-02-11T18:18:57.678Z,68.20
2023-02-11T18:21:24.957Z,68.30
2023-02-11T18:23:52.476Z,67.60
2023-02-11T18:26:21.317Z,67.80
2023-02-11T18:28:48.582Z,68.40
2023-02-11T18:31:15.848Z,67.80
2023-02-11T18:33:42.751Z,67.30
2023-02-11T18:36:12.873Z,67.30
2023-02-11T18:38:40.218Z,68.60
2023-02-11T18:41:07.594Z,67.70
2023-02-11T18:43:35.248Z,67.40
2023-02-11T18:46:07.019Z,67.80
2023-02-11T18:48:33.794Z,68.40
2023-02-11T18:51:00.496Z,67.50
2023-02-11T18:53:27.363Z,67.20
2023-02-11T18:55:54.800Z,67.30
2023-02-11T18:58:21.871Z,67.50
2023-02-11T19:00:49.933Z,67.20
2023-02-11T19:03:17.022Z,68.30
2023-02-11T19:05:49.241Z,67.40
2023-02-11T19:08:17.095Z,69.00
2023-02-11T19:10:46.249Z,67.80
2023-02-11T19:13:13.794Z,68.10
2023-02-11T19:15:45.562Z,67.20
2023-02-11T19:18:14.458Z,68.80
2023-02-11T19:20:44.696Z,68.10
2023-02-11T19:23:11.852Z,68.80
2023-02-11T19:25:45.850Z,67.20
2023-02-11T19:28:13.185Z,68.90
2023-02-11T19:30:40.689Z,67.00
2023-02-11T19:33:10.007Z,67.30
2023-02-11T19:35:37.064Z,68.00
2023-02-11T19:38:05.208Z,67.00
2023-02-11T19:40:32.617Z,67.90
2023-02-11T19:42:59.316Z,67.50
2023-02-11T19:45:26.977Z,67.10
2023-02-11T19:47:57.554Z,67.10
2023-02-11T19:50:24.576Z,69.00
2023-02-11T19:52:51.485Z,67.50
2023-02-11T19:55:18.644Z,67.20
2023-02-11T19:57:45.513Z,67.10
2023-02-11T20:00:12.734Z,67.00
2023-02-11T20:02:40.181Z,67.30
2023-02-11T20:05:08.702Z,67.60
2023-02-11T20:07:35.541Z,67.60
2023-02-11T20:10:02.299Z,67.00
2023-02-11T20:12:29.024Z,67.00
2023-02-11T20:14:55.737Z,67.10
2023-02-11T20:17:22.476Z,67.20
2023-02-11T20:19:49.335Z,66.90
2023-02-11T20:22:16.235Z,67.20
2023-02-11T20:24:43.017Z,67.00
2023-02-11T20:27:11.621Z,67.20
2023-02-11T20:29:39.953Z,66.90
2023-02-11T20:32:08.068Z,67.70
2023-02-11T20:34:34.940Z,67.50
2023-02-11T20:37:02.204Z,67.00
2023-02-11T20:39:29.057Z,67.20
2023-02-11T20:41:57.486Z,67.20
2023-02-11T20:44:24.466Z,67.30
2023-02-11T20:46:52.034Z,68.40
2023-02-11T20:49:21.704Z,67.40
2023-02-11T20:51:49.185Z,68.80
2023-02-11T20:54:18.971Z,67.50
2023-02-11T20:56:48.235Z,69.10
2023-02-11T20:59:16.617Z,67.60
2023-02-11T21:01:46.429Z,67.60
2023-02-11T21:04:23.010Z,68.20
2023-02-11T21:06:52.890Z,68.30
2023-02-11T21:09:22.608Z,68.10
2023-02-11T21:11:51.521Z,68.40
2023-02-11T21:14:19.388Z,68.00
2023-02-11T21:16:47.426Z,67.60
2023-02-11T21:19:15.144Z,67.60
2023-02-11T21:21:42.165Z,67.80
2023-02-11T21:24:10.287Z,66.70
2023-02-11T21:26:37.494Z,68.70
2023-02-11T21:29:06.066Z,66.90
2023-02-11T21:31:34.376Z,67.40
2023-02-11T21:34:01.587Z,67.40
2023-02-11T21:36:29.857Z,66.40
2023-02-11T21:38:56.793Z,67.30
2023-02-11T21:41:24.837Z,66.40
2023-02-11T21:43:51.889Z,66.70
2023-02-11T21:46:19.526Z,66.40
2023-02-11T21:48:46.918Z,67.00
2023-02-11T21:51:16.726Z,66.80
2023-02-11T21:53:43.908Z,68.00
2023-02-11T21:56:14.383Z,66.90
2023-02-11T21:58:41.314Z,68.00
2023-02-11T22:01:20.289Z,66.70
2023-02-11T22:03:47.528Z,67.80
2023-02-11T22:06:21.362Z,67.10
2023-02-11T22:08:51.151Z,67.40
2023-02-11T22:11:18.968Z,68.20
2023-02-11T22:13:46.304Z,67.10
2023-02-11T22:16:16.108Z,67.10
2023-02-11T22:18:46.304Z,68.00
2023-02-11T22:21:19.290Z,66.90
2023-02-11T22:23:46.774Z,67.40
2023-02-11T22:26:16.148Z,67.00
2023-02-11T22:28:43.231Z,67.70
2023-02-11T22:31:13.396Z,66.80
2023-02-11T22:33:40.715Z,68.10
2023-02-11T22:36:12.864Z,67.30
2023-02-11T22:38:39.685Z,67.60
2023-02-11T22:41:09.076Z,66.60
2023-02-11T22:43:36.772Z,67.50
2023-02-11T22:46:06.063Z,67.30
2023-02-11T22:48:34.301Z,67.50
2023-02-11T22:51:07.211Z,67.50
2023-02-11T22:53:34.200Z,68.50
2023-02-11T22:56:05.472Z,66.50
2023-02-11T22:58:32.409Z,68.30
2023-02-11T23:00:59.275Z,66.50
2023-02-11T23:03:26.250Z,66.50
2023-02-11T23:05:53.179Z,66.60
2023-02-11T23:08:20.583Z,66.60
2023-02-11T23:10:47.330Z,67.10
2023-02-11T23:13:14.074Z,66.80
2023-02-11T23:15:43.016Z,67.00
2023-02-11T23:18:11.082Z,68.20
2023-02-11T23:20:40.284Z,67.80
2023-02-11T23:23:07.754Z,68.30
2023-02-11T23:25:35.356Z,67.70
2023-02-11T23:28:02.211Z,68.80
2023-02-11T23:30:29.040Z,67.30
2023-02-11T23:32:55.742Z,68.30
2023-02-11T23:35:23.085Z,67.40
2023-02-11T23:37:50.746Z,67.30
2023-02-11T23:40:19.123Z,67.80
2023-02-11T23:42:47.505Z,68.20
2023-02-11T23:45:14.837Z,67.40
2023-02-11T23:47:41.784Z,67.60
2023-02-11T23:50:10.027Z,67.80
2023-02-11T23:52:36.848Z,68.80
2023-02-11T23:55:03.778Z,67.70
2023-02-11T23:57:32.819Z,67.90
2023-02-11T23:59:59.570Z,69.20
